createdAt,value
2022-10-19T00:00:33.187Z,95896.59
2022-10-19T00:02:59.723Z,95903.91
2022-10-19T00:05:26.490Z,95887.91
2022-10-19T00:07:53.701Z,95897.19
2022-10-19T00:10:20.407Z,95898.00
2022-10-19T00:15:13.742Z,95882.91
2022-10-19T00:17:40.253Z,95891.25
2022-10-19T00:20:06.988Z,95890.44
2022-10-19T00:22:33.661Z,95892.69
2022-10-19T00:25:00.274Z,95887.47
2022-10-19T00:27:26.759Z,95888.97
2022-10-19T00:29:53.234Z,95889.53
2022-10-19T00:32:19.710Z,95883.28
2022-10-19T00:34:46.162Z,95876.00
2022-10-19T00:37:12.629Z,95867.88
2022-10-19T00:39:39.307Z,95884.19
2022-10-19T00:42:05.822Z,95890.25
2022-10-19T00:44:32.169Z,95885.63
2022-10-19T00:47:01.872Z,95888.97
2022-10-19T00:49:32.195Z,95889.28
2022-10-19T00:52:04.117Z,95887.91
2022-10-19T00:54:32.718Z,95882.69
2022-10-19T00:56:59.922Z,95877.13
2022-10-19T00:59:27.242Z,95884.44
2022-10-19T01:01:54.469Z,95886.31
2022-10-19T01:04:22.203Z,95879.00
2022-10-19T01:06:48.756Z,95884.44
2022-10-19T01:09:15.337Z,95888.84
2022-10-19T01:11:58.220Z,95882.59
2022-10-19T01:14:43.582Z,95884.31
2022-10-19T01:17:43.914Z,95877.63
2022-10-19T01:20:19.368Z,95876.91
2022-10-19T01:23:16.595Z,95875.53
2022-10-19T01:26:01.212Z,95866.59
2022-10-19T01:28:54.568Z,95858.84
2022-10-19T01:31:30.424Z,95860.81
2022-10-19T01:34:10.141Z,95853.13
2022-10-19T01:36:57.865Z,95853.19
2022-10-19T01:39:54.986Z,95847.72
2022-10-19T01:42:46.705Z,95846.06
2022-10-19T01:45:19.717Z,95853.44
2022-10-19T01:47:49.778Z,95854.09
2022-10-19T01:50:17.339Z,95851.91
2022-10-19T01:52:43.875Z,95852.81
2022-10-19T01:55:13.187Z,95863.28
2022-10-19T01:57:43.042Z,95844.63
2022-10-19T02:00:11.133Z,95850.75
2022-10-19T02:02:39.374Z,95845.66
2022-10-19T02:05:07.778Z,95837.47
2022-10-19T02:07:34.992Z,95839.25
2022-10-19T02:10:01.623Z,95848.06
2022-10-19T02:12:28.965Z,95852.06
2022-10-19T02:14:58.576Z,95837.34
2022-10-19T02:17:28.794Z,95842.59
2022-10-19T02:19:59.134Z,95847.47
2022-10-19T02:22:25.674Z,95838.94
2022-10-19T02:24:52.139Z,95837.16
2022-10-19T02:27:19.277Z,95834.88
2022-10-19T02:29:46.099Z,95835.28
2022-10-19T02:32:12.716Z,95833.72
2022-10-19T02:34:39.575Z,95825.16
2022-10-19T02:37:06.425Z,95813.13
2022-10-19T02:39:33.275Z,95809.50
2022-10-19T02:42:08.823Z,95806.03
2022-10-19T02:44:48.203Z,95809.53
2022-10-19T02:47:21.078Z,95808.47
2022-10-19T02:49:47.818Z,95803.94
2022-10-19T02:52:14.738Z,95797.97
2022-10-19T02:54:43.696Z,95806.50
2022-10-19T02:57:19.325Z,95802.16
2022-10-19T02:59:46.122Z,95807.81
2022-10-19T03:02:13.526Z,95799.31
2022-10-19T03:04:40.275Z,95804.63
2022-10-19T03:07:06.720Z,95810.56
2022-10-19T03:09:33.147Z,95810.00
2022-10-19T03:11:59.573Z,95811.19
2022-10-19T03:14:26.094Z,95805.09
2022-10-19T03:16:52.523Z,95799.72
2022-10-19T03:19:19.088Z,95795.69
2022-10-19T03:21:45.948Z,95786.69
2022-10-19T03:24:12.718Z,95787.94
2022-10-19T03:26:39.221Z,95794.69
2022-10-19T03:29:05.731Z,95791.91
2022-10-19T03:31:32.366Z,95793.94
2022-10-19T03:33:58.885Z,95789.22
2022-10-19T03:36:26.420Z,95780.78
2022-10-19T03:38:57.839Z,95781.25
2022-10-19T03:41:26.817Z,95786.25
2022-10-19T03:43:53.385Z,95793.69
2022-10-19T03:46:20.999Z,95789.19
2022-10-19T03:48:48.137Z,95789.63
2022-10-19T03:51:20.050Z,95795.06
2022-10-19T03:53:46.896Z,95793.34
2022-10-19T03:56:18.809Z,95794.91
2022-10-19T03:58:47.072Z,95801.88
2022-10-19T04:01:21.803Z,95795.94
2022-10-19T04:04:01.118Z,95794.41
2022-10-19T04:06:31.624Z,95797.25
2022-10-19T04:08:58.736Z,95793.88
2022-10-19T04:11:27.607Z,95801.16
2022-10-19T04:14:26.736Z,95795.31
2022-10-19T04:17:03.598Z,95792.31
2022-10-19T04:19:30.564Z,95788.19
2022-10-19T04:21:57.518Z,95781.09
2022-10-19T04:24:23.968Z,95784.78
2022-10-19T04:26:52.839Z,95787.25
2022-10-19T04:29:22.835Z,95777.81
2022-10-19T04:31:53.529Z,95777.28
2022-10-19T04:34:19.990Z,95779.31
2022-10-19T04:36:46.454Z,95782.69
2022-10-19T04:39:24.669Z,95775.72
2022-10-19T04:41:51.136Z,95768.53
2022-10-19T04:44:17.700Z,95775.16
2022-10-19T04:46:44.185Z,95774.06
2022-10-19T04:49:10.697Z,95778.72
2022-10-19T04:51:37.150Z,95776.69
2022-10-19T04:54:07.043Z,95773.91
2022-10-19T04:56:34.176Z,95782.22
2022-10-19T04:59:03.583Z,95770.25
2022-10-19T05:01:31.627Z,95773.75
2022-10-19T05:04:00.732Z,95776.22
2022-10-19T05:06:27.764Z,95773.88
2022-10-19T05:08:55.036Z,95780.25
2022-10-19T05:11:22.332Z,95777.09
2022-10-19T05:13:49.171Z,95768.81
2022-10-19T05:16:18.125Z,95758.63
2022-10-19T05:18:49.147Z,95753.78
2022-10-19T05:21:16.527Z,95755.25
2022-10-19T05:23:43.344Z,95755.47
2022-10-19T05:26:15.635Z,95750.16
2022-10-19T05:28:42.627Z,95766.28
2022-10-19T05:31:11.724Z,95766.28
2022-10-19T05:33:39.441Z,95772.19
2022-10-19T05:36:13.486Z,95767.13
2022-10-19T05:38:40.069Z,95765.34
2022-10-19T05:41:06.855Z,95766.66
2022-10-19T05:43:33.486Z,95768.31
2022-10-19T05:46:08.612Z,95769.84
2022-10-19T05:48:37.062Z,95765.91
2022-10-19T05:51:05.451Z,95766.66
2022-10-19T05:53:33.685Z,95760.53
2022-10-19T05:56:00.232Z,95760.53
2022-10-19T05:58:26.930Z,95759.22
2022-10-19T06:00:58.358Z,95771.69
2022-10-19T06:03:25.588Z,95762.16
2022-10-19T06:05:53.009Z,95762.09
2022-10-19T06:08:20.701Z,95767.78
2022-10-19T06:10:47.904Z,95760.00
2022-10-19T06:13:15.720Z,95759.13
2022-10-19T06:15:42.289Z,95764.13
2022-10-19T06:18:10.576Z,95759.63
2022-10-19T06:20:38.890Z,95757.81
2022-10-19T06:23:06.038Z,95758.25
2022-10-19T06:25:33.096Z,95756.50
2022-10-19T06:28:00.440Z,95770.59
2022-10-19T06:30:27.205Z,95763.69
2022-10-19T06:32:54.011Z,95770.84
2022-10-19T06:35:20.807Z,95767.47
2022-10-19T06:37:51.298Z,95769.53
2022-10-19T06:40:18.019Z,95761.25
2022-10-19T06:42:44.557Z,95762.69
2022-10-19T06:45:11.138Z,95757.97
2022-10-19T06:47:38.104Z,95756.69
2022-10-19T06:50:06.253Z,95751.75
2022-10-19T06:52:33.840Z,95756.63
2022-10-19T06:55:01.295Z,95760.09
2022-10-19T06:57:28.433Z,95767.16
2022-10-19T06:59:55.187Z,95774.47
2022-10-19T07:02:21.778Z,95780.13
2022-10-19T07:04:48.311Z,95773.44
2022-10-19T07:07:14.930Z,95773.66
2022-10-19T07:09:41.549Z,95773.91
2022-10-19T07:12:08.432Z,95776.81
2022-10-19T07:14:35.388Z,95779.34
2022-10-19T07:17:01.878Z,95773.38
2022-10-19T07:19:28.408Z,95769.19
2022-10-19T07:21:54.851Z,95757.75
2022-10-19T07:24:21.656Z,95754.00
2022-10-19T07:26:48.282Z,95758.66
2022-10-19T07:29:14.800Z,95760.03
2022-10-19T07:31:41.980Z,95758.75
2022-10-19T07:34:12.049Z,95763.41
2022-10-19T07:36:38.644Z,95758.44
2022-10-19T07:39:06.714Z,95764.41
2022-10-19T07:41:33.857Z,95772.34
2022-10-19T07:44:01.280Z,95769.28
2022-10-19T07:46:29.146Z,95765.28
2022-10-19T07:48:55.832Z,95765.13
2022-10-19T07:51:23.176Z,95761.59
2022-10-19T07:53:50.433Z,95763.09
2022-10-19T07:56:22.497Z,95760.34
2022-10-19T07:58:53.560Z,95763.44
2022-10-19T08:01:24.027Z,95765.56
2022-10-19T08:06:39.242Z,95769.13
2022-10-19T08:09:06.810Z,95778.13
2022-10-19T08:11:35.496Z,95773.66
2022-10-19T08:14:02.476Z,95768.78
2022-10-19T08:16:30.424Z,95759.09
2022-10-19T08:19:00.458Z,95762.28
2022-10-19T08:21:27.104Z,95760.88
2022-10-19T08:23:53.819Z,95752.16
2022-10-19T08:26:20.875Z,95760.75
2022-10-19T08:28:47.622Z,95750.06
2022-10-19T08:31:20.066Z,95739.28
2022-10-19T08:33:46.970Z,95736.28
2022-10-19T08:36:13.704Z,95738.97
2022-10-19T08:38:40.884Z,95736.47
2022-10-19T08:41:46.196Z,95728.16
2022-10-19T08:44:15.413Z,95736.81
2022-10-19T08:47:08.288Z,95735.03
2022-10-19T08:49:35.629Z,95737.38
2022-10-19T08:52:08.026Z,95728.34
2022-10-19T08:54:49.283Z,95726.41
2022-10-19T08:57:28.364Z,95720.19
2022-10-19T09:00:17.308Z,95715.03
2022-10-19T09:03:03.417Z,95715.72
2022-10-19T09:05:45.437Z,95723.59
2022-10-19T09:08:17.473Z,95714.09
2022-10-19T09:10:46.999Z,95712.97
2022-10-19T09:13:23.252Z,95722.00
2022-10-19T09:15:51.513Z,95717.38
2022-10-19T09:18:29.749Z,95715.84
2022-10-19T09:21:17.145Z,95709.38
2022-10-19T09:23:47.222Z,95714.28
2022-10-19T09:26:19.016Z,95713.72
2022-10-19T09:28:54.858Z,95715.03
2022-10-19T09:31:40.693Z,95712.00
2022-10-19T09:34:22.071Z,95711.59
2022-10-19T09:36:56.515Z,95716.91
2022-10-19T09:39:27.036Z,95706.53
2022-10-19T09:41:58.967Z,95715.22
2022-10-19T09:44:27.058Z,95705.75
2022-10-19T09:47:10.213Z,95697.28
2022-10-19T09:49:45.050Z,95698.16
2022-10-19T09:52:32.987Z,95690.88
2022-10-19T09:55:06.469Z,95695.06
2022-10-19T09:57:34.053Z,95691.94
2022-10-19T10:00:00.820Z,95681.50
2022-10-19T10:02:32.203Z,95682.19
2022-10-19T10:05:14.673Z,95681.84
2022-10-19T10:07:41.208Z,95687.97
2022-10-19T10:10:19.927Z,95687.22
2022-10-19T10:12:47.187Z,95696.97
2022-10-19T10:15:19.932Z,95694.28
2022-10-19T10:17:47.839Z,95695.53
2022-10-19T10:20:25.457Z,95701.47
2022-10-19T10:22:58.027Z,95696.97
2022-10-19T10:25:27.433Z,95691.69
2022-10-19T10:28:03.797Z,95686.91
2022-10-19T10:30:35.439Z,95680.72
2022-10-19T10:33:09.440Z,95681.59
2022-10-19T10:35:47.223Z,95684.56
2022-10-19T10:38:18.420Z,95673.94
2022-10-19T10:41:00.672Z,95680.19
2022-10-19T10:43:31.585Z,95686.84
2022-10-19T10:46:07.484Z,95673.41
2022-10-19T10:48:44.576Z,95670.44
2022-10-19T10:51:43.444Z,95667.47
2022-10-19T10:54:23.098Z,95662.28
2022-10-19T10:57:07.933Z,95657.69
2022-10-19T11:00:01.751Z,95655.03
2022-10-19T11:02:36.838Z,95650.91
2022-10-19T11:05:12.002Z,95645.41
2022-10-19T11:07:43.924Z,95638.81
2022-10-19T11:10:20.441Z,95643.13
2022-10-19T11:12:52.062Z,95634.50
2022-10-19T11:15:59.580Z,95632.88
2022-10-19T11:18:30.067Z,95628.13
2022-10-19T11:21:18.515Z,95621.50
2022-10-19T11:23:47.729Z,95622.91
2022-10-19T11:26:26.474Z,95623.00
2022-10-19T11:29:02.681Z,95614.91
2022-10-19T11:31:43.902Z,95619.13
2022-10-19T11:34:29.248Z,95605.69
2022-10-19T11:37:26.653Z,95611.47
2022-10-19T11:40:08.864Z,95590.91
2022-10-19T11:45:25.650Z,95582.91
2022-10-19T11:48:15.024Z,95580.81
2022-10-19T11:51:04.136Z,95581.09
2022-10-19T11:54:21.433Z,95573.84
2022-10-19T11:57:09.382Z,95571.44
2022-10-19T11:59:40.783Z,95565.88
2022-10-19T12:02:26.110Z,95559.22
2022-10-19T12:05:00.421Z,95553.28
2022-10-19T12:07:48.611Z,95556.53
2022-10-19T12:10:32.525Z,95557.06
2022-10-19T12:13:02.364Z,95551.16
2022-10-19T12:15:28.708Z,95554.38
2022-10-19T12:17:59.558Z,95547.44
2022-10-19T12:20:31.255Z,95551.50
2022-10-19T12:22:58.905Z,95543.97
2022-10-19T12:25:26.446Z,95536.19
2022-10-19T12:27:53.444Z,95519.25
2022-10-19T12:30:22.168Z,95517.66
2022-10-19T12:33:15.457Z,95515.78
2022-10-19T12:36:32.758Z,95518.44
2022-10-19T12:39:01.624Z,95522.75
2022-10-19T12:42:05.416Z,95527.59
2022-10-19T12:44:45.195Z,95529.19
2022-10-19T12:47:12.417Z,95519.81
2022-10-19T12:49:46.261Z,95514.16
2022-10-19T12:52:14.420Z,95517.13
2022-10-19T12:54:42.635Z,95507.75
2022-10-19T12:57:29.059Z,95499.13
2022-10-19T13:00:06.308Z,95507.47
2022-10-19T13:02:35.485Z,95505.03
2022-10-19T13:05:02.549Z,95507.19
2022-10-19T13:07:32.809Z,95505.31
2022-10-19T13:10:05.777Z,95510.41
2022-10-19T13:12:44.002Z,95517.13
2022-10-19T13:15:33.494Z,95505.03
2022-10-19T13:18:01.370Z,95498.06
2022-10-19T13:20:27.766Z,95491.88
2022-10-19T13:23:00.123Z,95493.75
2022-10-19T13:25:27.329Z,95491.06
2022-10-19T13:27:54.836Z,95485.44
2022-10-19T13:30:36.455Z,95484.38
2022-10-19T13:33:28.004Z,95474.63
2022-10-19T13:36:00.582Z,95478.72
2022-10-19T13:38:32.792Z,95470.13
2022-10-19T13:41:12.096Z,95472.25
2022-10-19T13:43:41.638Z,95477.69
2022-10-19T13:46:12.480Z,95474.19
2022-10-19T13:49:16.658Z,95471.78
2022-10-19T13:52:13.910Z,95474.72
2022-10-19T13:54:55.350Z,95470.84
2022-10-19T13:57:44.596Z,95467.91
2022-10-19T14:00:15.647Z,95474.25
2022-10-19T14:02:50.966Z,95469.81
2022-10-19T14:05:39.091Z,95471.28
2022-10-19T14:08:17.529Z,95457.13
2022-10-19T14:11:00.729Z,95457.56
2022-10-19T14:13:28.485Z,95456.97
2022-10-19T14:15:57.614Z,95455.25
2022-10-19T14:18:30.982Z,95455.69
2022-10-19T14:20:58.397Z,95455.06
2022-10-19T14:23:30.084Z,95445.44
2022-10-19T14:26:20.514Z,95440.53
2022-10-19T14:28:51.884Z,95438.16
2022-10-19T14:31:22.167Z,95433.66
2022-10-19T14:33:51.538Z,95429.94
2022-10-19T14:36:21.593Z,95423.25
2022-10-19T14:38:54.954Z,95419.44
2022-10-19T14:41:27.357Z,95428.66
2022-10-19T14:43:55.256Z,95421.66
2022-10-19T14:46:28.850Z,95423.28
2022-10-19T14:49:00.092Z,95425.94
2022-10-19T14:51:45.593Z,95427.31
2022-10-19T14:54:28.721Z,95434.03
2022-10-19T14:56:57.088Z,95438.94
2022-10-19T14:59:32.328Z,95431.97
2022-10-19T15:02:01.058Z,95425.56
2022-10-19T15:04:37.729Z,95414.31
2022-10-19T15:07:15.325Z,95421.03
2022-10-19T15:09:48.663Z,95421.34
2022-10-19T15:12:18.422Z,95412.78
2022-10-19T15:14:45.999Z,95415.91
2022-10-19T15:17:21.654Z,95429.88
2022-10-19T15:19:48.428Z,95432.03
2022-10-19T15:22:21.382Z,95434.72
2022-10-19T15:25:00.696Z,95440.34
2022-10-19T15:27:41.226Z,95422.13
2022-10-19T15:30:22.858Z,95413.50
2022-10-19T15:32:52.449Z,95415.88
2022-10-19T15:35:34.965Z,95414.28
2022-10-19T15:38:07.537Z,95407.31
2022-10-19T15:40:38.576Z,95397.97
2022-10-19T15:43:50.737Z,95394.22
2022-10-19T15:46:27.311Z,95393.91
2022-10-19T15:49:24.134Z,95400.31
2022-10-19T15:51:51.027Z,95398.94
2022-10-19T15:54:18.551Z,95401.88
2022-10-19T15:56:47.159Z,95392.81
2022-10-19T15:59:16.434Z,95406.25
2022-10-19T16:01:44.096Z,95402.75
2022-10-19T16:04:10.876Z,95411.91
2022-10-19T16:06:40.257Z,95406.81
2022-10-19T16:09:08.703Z,95400.88
2022-10-19T16:11:35.340Z,95406.22
2022-10-19T16:14:02.513Z,95411.59
2022-10-19T16:16:31.803Z,95407.06
2022-10-19T16:18:59.097Z,95400.31
2022-10-19T16:21:33.344Z,95401.34
2022-10-19T16:24:00.247Z,95401.22
2022-10-19T16:26:27.023Z,95398.91
2022-10-19T16:28:55.397Z,95393.50
2022-10-19T16:31:23.041Z,95393.00
2022-10-19T16:33:49.603Z,95396.69
2022-10-19T16:36:16.356Z,95394.41
2022-10-19T16:38:42.865Z,95393.69
2022-10-19T16:41:10.644Z,95390.34
2022-10-19T16:43:37.989Z,95390.31
2022-10-19T16:46:06.010Z,95394.09
2022-10-19T16:48:33.230Z,95397.09
2022-10-19T16:51:24.344Z,95407.28
2022-10-19T16:53:53.730Z,95419.19
2022-10-19T16:56:20.594Z,95426.19
2022-10-19T16:58:47.234Z,95435.22
2022-10-19T17:01:16.584Z,95427.56
2022-10-19T17:03:44.127Z,95430.22
2022-10-19T17:06:10.750Z,95433.91
2022-10-19T17:09:14.317Z,95427.38
2022-10-19T17:11:28.035Z,95430.97
2022-10-19T17:13:57.521Z,95423.75
2022-10-19T17:16:25.954Z,95429.13
2022-10-19T17:18:55.423Z,95422.03
2022-10-19T17:21:27.130Z,95430.69
2022-10-19T17:23:55.856Z,95424.22
2022-10-19T17:26:30.981Z,95428.81
2022-10-19T17:28:58.474Z,95429.19
2022-10-19T17:31:25.537Z,95425.13
2022-10-19T17:33:52.586Z,95425.28
2022-10-19T17:36:24.396Z,95410.66
2022-10-19T17:38:53.454Z,95422.47
2022-10-19T17:41:20.124Z,95430.88
2022-10-19T17:43:48.106Z,95429.75
2022-10-19T17:46:16.647Z,95439.69
2022-10-19T17:48:44.210Z,95445.56
2022-10-19T17:51:19.442Z,95447.38
2022-10-19T17:53:49.762Z,95450.16
2022-10-19T17:56:18.976Z,95453.84
2022-10-19T17:58:45.600Z,95454.84
2022-10-19T18:01:12.441Z,95441.88
2022-10-19T18:03:39.741Z,95437.41
2022-10-19T18:06:10.710Z,95435.47
2022-10-19T18:08:40.036Z,95436.22
2022-10-19T18:11:09.366Z,95434.00
2022-10-19T18:16:16.131Z,95436.53
2022-10-19T18:18:44.572Z,95438.88
2022-10-19T18:21:12.985Z,95431.25
2022-10-19T18:23:40.198Z,95442.66
2022-10-19T18:26:15.276Z,95444.63
2022-10-19T18:28:42.669Z,95437.84
2022-10-19T18:31:12.126Z,95430.81
2022-10-19T18:33:39.041Z,95432.22
2022-10-19T18:36:07.664Z,95432.56
2022-10-19T18:38:34.988Z,95433.72
2022-10-19T18:41:09.663Z,95435.69
2022-10-19T18:43:36.542Z,95439.25
2022-10-19T18:46:03.227Z,95442.84
2022-10-19T18:48:30.547Z,95429.84
2022-10-19T18:50:57.754Z,95447.75
2022-10-19T18:53:24.499Z,95433.38
2022-10-19T18:56:01.540Z,95419.41
2022-10-19T18:58:30.775Z,95427.19
2022-10-19T19:01:05.819Z,95425.53
2022-10-19T19:03:33.111Z,95425.56
2022-10-19T19:06:07.538Z,95426.03
2022-10-19T19:08:34.135Z,95432.06
2022-10-19T19:11:15.883Z,95428.56
2022-10-19T19:13:50.653Z,95420.88
2022-10-19T19:16:17.545Z,95423.53
2022-10-19T19:18:44.389Z,95432.03
2022-10-19T19:21:19.509Z,95427.19
2022-10-19T19:23:49.457Z,95423.94
2022-10-19T19:26:16.161Z,95425.88
2022-10-19T19:28:44.335Z,95427.09
2022-10-19T19:31:13.271Z,95426.22
2022-10-19T19:33:40.188Z,95427.31
2022-10-19T19:36:15.053Z,95417.34
2022-10-19T19:38:43.850Z,95427.84
2022-10-19T19:41:16.342Z,95427.13
2022-10-19T19:43:43.872Z,95422.19
2022-10-19T19:46:18.789Z,95420.59
2022-10-19T19:48:47.458Z,95432.75
2022-10-19T19:51:19.560Z,95425.28
2022-10-19T19:53:47.277Z,95420.13
2022-10-19T19:56:15.735Z,95423.97
2022-10-19T19:58:43.034Z,95428.50
2022-10-19T20:01:12.349Z,95433.66
2022-10-19T20:03:40.555Z,95433.75
2022-10-19T20:06:09.279Z,95430.63
2022-10-19T20:08:38.870Z,95430.38
2022-10-19T20:11:07.744Z,95434.81
2022-10-19T20:13:34.770Z,95424.47
2022-10-19T20:16:10.488Z,95440.31
2022-10-19T20:18:37.268Z,95432.56
2022-10-19T20:21:04.994Z,95429.31
2022-10-19T20:23:31.674Z,95420.94
2022-10-19T20:25:58.369Z,95425.53
2022-10-19T20:28:25.642Z,95430.63
2022-10-19T20:31:06.383Z,95435.88
2022-10-19T20:33:34.238Z,95453.09
2022-10-19T20:36:09.111Z,95438.28
2022-10-19T20:38:37.008Z,95448.72
2022-10-19T20:41:07.776Z,95436.75
2022-10-19T20:43:35.957Z,95446.69
2022-10-19T20:46:06.612Z,95441.81
2022-10-19T20:48:33.310Z,95457.34
2022-10-19T20:51:21.173Z,95451.59
2022-10-19T20:53:50.549Z,95444.41
2022-10-19T20:56:19.751Z,95450.88
2022-10-19T20:58:46.431Z,95446.13
2022-10-19T21:01:16.272Z,95447.84
2022-10-19T21:03:47.894Z,95449.00
2022-10-19T21:06:14.637Z,95450.63
2022-10-19T21:08:42.146Z,95441.69
2022-10-19T21:11:23.088Z,95440.75
2022-10-19T21:13:53.780Z,95434.38
2022-10-19T21:16:22.005Z,95438.19
2022-10-19T21:18:49.506Z,95442.72
2022-10-19T21:21:24.820Z,95448.47
2022-10-19T21:23:55.031Z,95455.94
2022-10-19T21:26:24.254Z,95458.19
2022-10-19T21:28:51.131Z,95453.00
2022-10-19T21:31:17.954Z,95453.13
2022-10-19T21:33:44.668Z,95454.47
2022-10-19T21:36:11.985Z,95453.63
2022-10-19T21:38:38.822Z,95451.28
2022-10-19T21:41:07.460Z,95450.13
2022-10-19T21:43:34.555Z,95457.75
2022-10-19T21:46:02.810Z,95444.47
2022-10-19T21:48:29.780Z,95444.47
2022-10-19T21:50:56.216Z,95438.78
2022-10-19T21:53:23.286Z,95431.19
2022-10-19T21:55:51.164Z,95439.31
2022-10-19T21:58:17.764Z,95438.06
2022-10-19T22:00:44.210Z,95432.41
2022-10-19T22:03:11.491Z,95419.88
2022-10-19T22:05:38.245Z,95424.16
2022-10-19T22:08:05.074Z,95420.03
2022-10-19T22:10:31.608Z,95418.53
2022-10-19T22:12:58.259Z,95421.50
2022-10-19T22:15:24.923Z,95420.22
2022-10-19T22:17:51.592Z,95421.41
2022-10-19T22:20:18.141Z,95422.22
2022-10-19T22:22:44.596Z,95415.03
2022-10-19T22:25:11.040Z,95419.97
2022-10-19T22:27:37.664Z,95415.25
2022-10-19T22:30:04.822Z,95422.56
2022-10-19T22:32:31.319Z,95413.06
2022-10-19T22:34:57.851Z,95410.38
2022-10-19T22:37:24.458Z,95408.28
2022-10-19T22:39:50.954Z,95405.75
2022-10-19T22:42:17.401Z,95397.75
2022-10-19T22:44:43.843Z,95393.59
2022-10-19T22:47:10.425Z,95388.50
2022-10-19T22:49:36.876Z,95389.19
2022-10-19T22:52:03.479Z,95381.06
2022-10-19T22:54:29.962Z,95389.16
2022-10-19T22:56:56.905Z,95380.59
2022-10-19T22:59:23.652Z,95378.13
2022-10-19T23:01:50.191Z,95382.53
2022-10-19T23:04:19.800Z,95380.97
2022-10-19T23:06:46.246Z,95379.44
2022-10-19T23:09:12.711Z,95378.69
2022-10-19T23:11:39.176Z,95373.97
2022-10-19T23:14:06.449Z,95370.81
2022-10-19T23:16:33.030Z,95369.63
2022-10-19T23:18:59.465Z,95360.00
2022-10-19T23:21:25.989Z,95361.25
2022-10-19T23:23:52.475Z,95357.00
2022-10-19T23:26:20.125Z,95356.38
2022-10-19T23:28:48.573Z,95355.97
2022-10-19T23:31:17.541Z,95352.03
2022-10-19T23:33:44.368Z,95348.25
2022-10-19T23:36:22.509Z,95341.75
2022-10-19T23:38:50.173Z,95345.69
2022-10-19T23:41:17.521Z,95342.56
2022-10-19T23:43:44.052Z,95343.69
2022-10-19T23:46:10.666Z,95345.72
2022-10-19T23:48:37.516Z,95344.25
2022-10-19T23:51:13.017Z,95337.19
2022-10-19T23:53:41.672Z,95334.94
2022-10-19T23:56:12.928Z,95346.97
2022-10-19T23:58:39.426Z,95348.91
